createdAt,value
2018-05-12T00:01:37.955Z,8.43
2018-05-12T00:04:03.721Z,7.47
2018-05-12T00:06:29.499Z,6.83
2018-05-12T00:08:55.299Z,7.33
2018-05-12T00:11:21.053Z,6.40
2018-05-12T00:13:46.820Z,8.33
2018-05-12T00:16:12.606Z,6.80
2018-05-12T00:18:38.347Z,7.63
2018-05-12T00:21:04.129Z,10.53
2018-05-12T00:23:29.868Z,6.23
2018-05-12T00:25:55.617Z,6.80
2018-05-12T00:28:21.420Z,7.27
2018-05-12T00:30:47.404Z,5.70
2018-05-12T00:33:13.147Z,5.50
2018-05-12T00:35:38.903Z,7.63
2018-05-12T00:38:04.671Z,5.90
2018-05-12T00:40:37.273Z,6.20
2018-05-12T00:43:03.069Z,5.60
2018-05-12T00:45:28.808Z,8.40
2018-05-12T00:47:54.575Z,6.83
2018-05-12T00:50:20.446Z,7.17
2018-05-12T00:52:46.266Z,6.10
2018-05-12T00:55:12.051Z,6.80
2018-05-12T00:57:37.805Z,5.77
2018-05-12T01:00:03.587Z,8.13
2018-05-12T01:02:29.351Z,5.80
2018-05-12T01:04:55.099Z,6.43
2018-05-12T01:07:20.878Z,5.73
2018-05-12T01:09:46.641Z,5.20
2018-05-12T01:12:12.399Z,5.50
2018-05-12T01:14:38.156Z,6.50
2018-05-12T01:17:03.926Z,5.83
2018-05-12T01:19:29.672Z,5.07
2018-05-12T01:21:55.459Z,5.17
2018-05-12T01:24:21.227Z,6.73
2018-05-12T01:26:46.987Z,6.80
2018-05-12T01:29:12.745Z,7.03
2018-05-12T01:31:38.518Z,6.10
2018-05-12T01:34:04.275Z,5.83
2018-05-12T01:36:30.088Z,6.57
2018-05-12T01:38:55.887Z,6.10
2018-05-12T01:41:21.656Z,6.77
2018-05-12T01:43:47.454Z,5.50
2018-05-12T01:46:13.269Z,6.10
2018-05-12T01:48:39.020Z,8.40
2018-05-12T01:51:04.826Z,5.50
2018-05-12T01:53:30.580Z,5.20
2018-05-12T01:55:56.343Z,5.70
2018-05-12T01:58:22.158Z,5.53
2018-05-12T02:00:47.943Z,5.53
2018-05-12T02:03:13.689Z,5.23
2018-05-12T02:05:39.443Z,6.20
2018-05-12T02:08:05.215Z,5.43
2018-05-12T02:10:30.978Z,5.87
2018-05-12T02:12:56.767Z,5.37
2018-05-12T02:15:22.555Z,4.83
2018-05-12T02:17:48.401Z,5.17
2018-05-12T02:20:14.156Z,5.03
2018-05-12T02:22:39.920Z,6.30
2018-05-12T02:25:05.699Z,6.03
2018-05-12T02:27:31.503Z,5.37
2018-05-12T02:29:57.263Z,8.27
2018-05-12T02:32:23.271Z,10.20
2018-05-12T02:34:49.111Z,6.03
2018-05-12T02:37:14.928Z,5.37
2018-05-12T02:39:40.704Z,5.60
2018-05-12T02:42:06.490Z,7.80
2018-05-12T02:44:32.234Z,5.70
2018-05-12T02:46:58.009Z,5.20
2018-05-12T02:49:23.755Z,6.13
2018-05-12T02:51:49.665Z,5.17
2018-05-12T02:54:15.608Z,5.40
2018-05-12T02:56:41.378Z,5.20
2018-05-12T02:59:07.141Z,5.07
2018-05-12T03:01:32.947Z,4.80
2018-05-12T03:03:58.706Z,5.93
2018-05-12T03:06:24.463Z,5.50
2018-05-12T03:08:50.600Z,7.67
2018-05-12T03:11:16.475Z,6.10
2018-05-12T03:13:42.227Z,5.60
2018-05-12T03:16:08.044Z,5.63
2018-05-12T03:18:33.831Z,8.07
2018-05-12T03:20:59.587Z,8.73
2018-05-12T03:23:25.388Z,6.57
2018-05-12T03:25:51.159Z,6.30
2018-05-12T03:28:16.944Z,5.80
2018-05-12T03:30:42.745Z,7.80
2018-05-12T03:33:09.052Z,7.30
2018-05-12T03:35:34.821Z,7.60
2018-05-12T03:38:00.584Z,7.50
2018-05-12T03:40:26.341Z,7.03
2018-05-12T03:42:52.112Z,7.77
2018-05-12T03:45:17.889Z,7.50
2018-05-12T03:47:43.642Z,7.40
2018-05-12T03:50:09.412Z,6.77
2018-05-12T03:52:35.183Z,7.80
2018-05-12T03:55:00.948Z,8.43
2018-05-12T03:57:26.696Z,8.17
2018-05-12T03:59:52.497Z,7.57
2018-05-12T04:02:18.280Z,8.20
2018-05-12T04:04:56.432Z,7.60
2018-05-12T04:07:34.651Z,8.45
2018-05-12T04:10:12.420Z,6.90
2018-05-12T04:12:38.206Z,7.75
2018-05-12T04:15:03.988Z,12.57
2018-05-12T04:17:29.755Z,8.37
2018-05-12T04:19:55.621Z,8.30
2018-05-12T04:22:21.388Z,10.20
2018-05-12T04:24:47.140Z,7.57
2018-05-12T04:27:12.898Z,7.87
2018-05-12T04:29:38.675Z,7.70
2018-05-12T04:32:04.431Z,10.10
2018-05-12T04:34:30.361Z,10.43
2018-05-12T04:36:56.124Z,7.80
2018-05-12T04:39:21.867Z,7.77
2018-05-12T04:41:47.656Z,8.10
2018-05-12T04:44:13.403Z,7.60
2018-05-12T04:46:39.172Z,8.00
2018-05-12T04:49:04.992Z,8.80
2018-05-12T04:51:30.752Z,8.30
2018-05-12T04:53:56.532Z,11.40
2018-05-12T04:56:22.300Z,8.20
2018-05-12T05:01:42.870Z,9.67
2018-05-12T05:04:08.631Z,8.40
2018-05-12T05:06:34.473Z,10.33
2018-05-12T05:09:00.162Z,10.13
2018-05-12T05:11:25.979Z,9.77
2018-05-12T05:13:51.782Z,9.53
2018-05-12T05:16:17.629Z,9.07
2018-05-12T05:18:43.448Z,10.20
2018-05-12T05:21:09.271Z,8.63
2018-05-12T05:23:35.026Z,10.17
2018-05-12T05:26:00.808Z,9.97
2018-05-12T05:28:26.585Z,10.53
2018-05-12T05:30:52.572Z,16.40
2018-05-12T05:33:18.324Z,10.50
2018-05-12T05:35:44.138Z,14.20
2018-05-12T05:38:09.932Z,11.20
2018-05-12T05:40:35.688Z,10.60
2018-05-12T05:43:01.451Z,10.50
2018-05-12T05:45:27.212Z,10.57
2018-05-12T05:47:52.967Z,11.60
2018-05-12T05:50:18.791Z,10.73
2018-05-12T05:52:44.518Z,12.70
2018-05-12T05:55:10.287Z,10.77
2018-05-12T05:57:36.067Z,11.90
2018-05-12T06:00:01.865Z,12.27
2018-05-12T06:02:27.627Z,10.47
2018-05-12T06:04:53.475Z,12.40
2018-05-12T06:07:19.219Z,9.93
2018-05-12T06:09:44.984Z,12.43
2018-05-12T06:12:10.748Z,10.40
2018-05-12T06:14:36.487Z,11.03
2018-05-12T06:17:02.243Z,11.13
2018-05-12T06:19:28.014Z,15.10
2018-05-12T06:21:53.788Z,16.43
2018-05-12T06:24:19.820Z,11.33
2018-05-12T06:26:45.615Z,11.57
2018-05-12T06:29:11.376Z,10.27
2018-05-12T06:31:37.168Z,10.30
2018-05-12T06:34:02.950Z,10.70
2018-05-12T06:36:28.695Z,11.90
2018-05-12T06:38:54.483Z,13.37
2018-05-12T06:41:20.248Z,11.60
2018-05-12T06:43:45.999Z,12.47
2018-05-12T06:46:11.760Z,13.23
2018-05-12T06:48:37.565Z,14.50
2018-05-12T06:51:03.328Z,12.13
2018-05-12T06:53:29.072Z,12.97
2018-05-12T06:55:54.844Z,13.30
2018-05-12T06:58:20.591Z,15.90
2018-05-12T07:00:46.419Z,11.30
2018-05-12T07:03:12.211Z,10.60
2018-05-12T07:05:37.964Z,11.73
2018-05-12T07:08:03.748Z,11.73
2018-05-12T07:10:29.520Z,12.33
2018-05-12T07:12:55.341Z,11.10
2018-05-12T07:15:21.420Z,14.77
2018-05-12T07:17:47.264Z,11.67
2018-05-12T07:20:13.008Z,11.60
2018-05-12T07:22:38.763Z,12.83
2018-05-12T07:25:04.512Z,13.57
2018-05-12T07:27:30.304Z,13.30
2018-05-12T07:29:56.072Z,10.67
2018-05-12T07:32:21.829Z,12.03
2018-05-12T07:34:47.608Z,13.40
2018-05-12T07:37:13.398Z,12.30
2018-05-12T07:39:39.139Z,14.17
2018-05-12T07:42:04.884Z,11.50
2018-05-12T07:44:30.660Z,14.60
2018-05-12T07:46:56.399Z,10.53
2018-05-12T07:49:22.166Z,12.53
2018-05-12T07:51:47.947Z,14.43
2018-05-12T07:54:13.717Z,9.90
2018-05-12T07:56:39.483Z,10.33
2018-05-12T07:59:05.288Z,13.60
2018-05-12T08:01:31.078Z,11.40
2018-05-12T08:03:56.920Z,9.60
2018-05-12T08:06:22.714Z,11.83
2018-05-12T08:08:48.468Z,9.63
2018-05-12T08:11:14.247Z,13.77
2018-05-12T08:13:40.015Z,11.50
2018-05-12T08:16:05.795Z,14.20
2018-05-12T08:18:31.614Z,15.07
2018-05-12T08:20:57.359Z,15.20
2018-05-12T08:23:23.124Z,13.87
2018-05-12T08:25:48.903Z,13.77
2018-05-12T08:28:14.700Z,13.70
2018-05-12T08:30:40.443Z,11.63
2018-05-12T08:33:06.231Z,12.27
2018-05-12T08:35:32.013Z,12.40
2018-05-12T08:37:57.782Z,15.33
2018-05-12T08:40:23.667Z,9.87
2018-05-12T08:42:49.332Z,11.80
2018-05-12T08:45:15.077Z,11.80
2018-05-12T08:47:40.857Z,9.73
2018-05-12T08:50:06.614Z,14.33
2018-05-12T08:52:32.376Z,11.83
2018-05-12T08:54:58.175Z,10.00
2018-05-12T08:57:23.920Z,10.13
2018-05-12T08:59:49.814Z,8.70
2018-05-12T09:02:15.591Z,7.57
2018-05-12T09:04:41.355Z,8.47
2018-05-12T09:07:07.177Z,6.90
2018-05-12T09:09:32.929Z,7.67
2018-05-12T09:11:58.711Z,7.63
2018-05-12T09:14:24.529Z,7.57
2018-05-12T09:19:45.114Z,8.00
2018-05-12T09:22:10.900Z,6.90
2018-05-12T09:24:36.657Z,7.33
2018-05-12T09:27:02.427Z,7.07
2018-05-12T09:29:28.215Z,8.70
2018-05-12T09:31:53.979Z,5.90
2018-05-12T09:34:19.836Z,9.80
2018-05-12T09:36:45.611Z,11.27
2018-05-12T09:39:11.366Z,10.07
2018-05-12T09:41:37.124Z,11.57
2018-05-12T09:44:02.930Z,9.73
2018-05-12T09:46:28.691Z,8.20
2018-05-12T09:48:54.457Z,9.83
2018-05-12T09:51:20.281Z,8.53
2018-05-12T09:53:46.037Z,7.70
2018-05-12T09:56:11.809Z,7.90
2018-05-12T09:58:37.602Z,8.83
2018-05-12T10:01:03.391Z,12.50
2018-05-12T10:03:29.306Z,8.33
2018-05-12T10:05:55.077Z,7.70
2018-05-12T10:08:20.828Z,6.80
2018-05-12T10:10:46.705Z,7.13
2018-05-12T10:13:12.528Z,7.87
2018-05-12T10:15:38.381Z,8.90
2018-05-12T10:18:04.080Z,6.70
2018-05-12T10:20:29.871Z,7.37
2018-05-12T10:22:55.736Z,8.77
2018-05-12T10:25:21.567Z,9.23
2018-05-12T10:27:47.444Z,9.70
2018-05-12T10:30:13.199Z,7.17
2018-05-12T10:32:38.983Z,5.70
2018-05-12T10:35:04.756Z,6.80
2018-05-12T10:37:30.523Z,7.87
2018-05-12T10:39:56.312Z,7.87
2018-05-12T10:42:22.119Z,9.77
2018-05-12T10:44:47.869Z,8.37
2018-05-12T10:47:13.650Z,7.03
2018-05-12T10:49:39.419Z,8.00
2018-05-12T10:52:05.179Z,8.90
2018-05-12T10:54:30.979Z,8.13
2018-05-12T10:56:56.772Z,5.20
2018-05-12T10:59:22.549Z,6.60
2018-05-12T11:01:48.310Z,6.40
2018-05-12T11:04:14.091Z,7.87
2018-05-12T11:06:39.901Z,8.60
2018-05-12T11:09:05.647Z,8.47
2018-05-12T11:11:31.428Z,7.60
2018-05-12T11:14:04.148Z,8.50
2018-05-12T11:16:29.910Z,6.03
2018-05-12T11:18:55.673Z,6.40
2018-05-12T11:21:21.437Z,6.90
2018-05-12T11:23:47.336Z,7.27
2018-05-12T11:26:13.108Z,5.60
2018-05-12T11:28:38.863Z,5.20
2018-05-12T11:31:04.672Z,4.73
2018-05-12T11:33:30.433Z,4.27
2018-05-12T11:35:56.195Z,4.50
2018-05-12T11:38:21.999Z,6.33
2018-05-12T11:40:47.783Z,5.90
2018-05-12T11:43:13.527Z,5.93
2018-05-12T11:45:39.318Z,4.77
2018-05-12T11:48:05.075Z,4.50
2018-05-12T11:50:30.837Z,5.70
2018-05-12T11:52:56.662Z,6.20
2018-05-12T11:55:22.434Z,5.77
2018-05-12T11:57:48.335Z,7.60
2018-05-12T12:00:14.136Z,7.00
2018-05-12T12:02:39.914Z,6.77
2018-05-12T12:05:05.752Z,6.70
2018-05-12T12:07:31.540Z,4.63
2018-05-12T12:09:57.313Z,3.80
2018-05-12T12:12:23.075Z,5.10
2018-05-12T12:14:48.859Z,5.33
2018-05-12T12:17:14.643Z,4.00
2018-05-12T12:19:40.410Z,4.00
2018-05-12T12:22:06.227Z,3.30
2018-05-12T12:24:32.001Z,4.13
2018-05-12T12:26:57.751Z,5.23
2018-05-12T12:29:23.555Z,4.97
2018-05-12T12:31:49.496Z,3.40
2018-05-12T12:34:15.238Z,3.90
2018-05-12T12:36:41.011Z,4.33
2018-05-12T12:39:06.808Z,4.47
2018-05-12T12:41:32.575Z,6.33
2018-05-12T12:43:58.339Z,4.17
2018-05-12T12:46:24.093Z,4.20
2018-05-12T12:48:49.910Z,3.93
2018-05-12T12:51:15.679Z,3.10
2018-05-12T12:53:41.454Z,3.80
2018-05-12T12:56:07.240Z,5.33
2018-05-12T12:58:33.021Z,4.27
2018-05-12T13:00:58.776Z,3.97
2018-05-12T13:03:24.614Z,2.63
2018-05-12T13:05:50.359Z,3.00
2018-05-12T13:08:16.284Z,3.50
2018-05-12T13:10:42.049Z,3.13
2018-05-12T13:13:07.810Z,3.47
2018-05-12T13:15:33.607Z,3.53
2018-05-12T13:17:59.404Z,3.90
2018-05-12T13:20:25.155Z,2.90
2018-05-12T13:22:50.974Z,4.77
2018-05-12T13:25:17.415Z,4.17
2018-05-12T13:27:43.197Z,4.10
2018-05-12T13:30:08.991Z,5.70
2018-05-12T13:32:34.752Z,3.83
2018-05-12T13:35:00.547Z,3.70
2018-05-12T13:37:26.340Z,3.20
2018-05-12T13:39:52.121Z,3.07
2018-05-12T13:42:17.910Z,4.00
2018-05-12T13:44:43.685Z,3.83
2018-05-12T13:47:09.967Z,2.93
2018-05-12T13:49:35.728Z,4.00
2018-05-12T13:52:01.503Z,2.73
2018-05-12T13:54:27.310Z,7.27
2018-05-12T13:56:53.275Z,6.60
2018-05-12T13:59:18.973Z,3.07
2018-05-12T14:01:44.792Z,7.80
2018-05-12T14:04:10.564Z,3.10
2018-05-12T14:06:36.335Z,5.07
2018-05-12T14:09:02.148Z,3.13
2018-05-12T14:11:27.969Z,4.90
2018-05-12T14:13:53.706Z,3.60
2018-05-12T14:16:19.462Z,3.43
2018-05-12T14:18:45.241Z,6.30
2018-05-12T14:21:11.018Z,4.37
2018-05-12T14:23:36.775Z,3.00
2018-05-12T14:26:02.564Z,4.87
2018-05-12T14:28:28.339Z,3.67
2018-05-12T14:30:54.121Z,4.07
2018-05-12T14:33:19.932Z,4.37
2018-05-12T14:35:45.700Z,3.50
2018-05-12T14:38:11.456Z,4.47
2018-05-12T14:40:37.236Z,3.30
2018-05-12T14:43:02.992Z,3.80
2018-05-12T14:45:28.752Z,5.73
2018-05-12T14:47:54.551Z,3.33
2018-05-12T14:50:20.416Z,4.23
2018-05-12T14:52:46.178Z,4.30
2018-05-12T14:55:11.997Z,5.83
2018-05-12T14:57:37.751Z,6.03
2018-05-12T15:00:03.522Z,3.80
2018-05-12T15:02:29.331Z,4.00
2018-05-12T15:04:55.081Z,3.27
2018-05-12T15:07:20.834Z,3.50
2018-05-12T15:09:46.607Z,3.53
2018-05-12T15:12:12.380Z,2.87
2018-05-12T15:14:38.169Z,3.97
2018-05-12T15:17:03.948Z,3.60
2018-05-12T15:19:30.382Z,6.47
2018-05-12T15:21:56.123Z,4.80
2018-05-12T15:24:21.927Z,3.13
2018-05-12T15:26:47.767Z,3.90
2018-05-12T15:29:13.511Z,3.67
2018-05-12T15:31:39.298Z,4.67
2018-05-12T15:34:05.083Z,3.63
2018-05-12T15:36:30.832Z,6.20
2018-05-12T15:38:56.600Z,5.33
2018-05-12T15:41:22.366Z,2.90
2018-05-12T15:43:48.219Z,5.93
2018-05-12T15:46:13.968Z,4.07
2018-05-12T15:48:39.726Z,3.07
2018-05-12T15:51:05.511Z,2.70
2018-05-12T15:53:31.270Z,3.13
2018-05-12T15:55:57.025Z,3.97
2018-05-12T15:58:22.795Z,3.33
2018-05-12T16:00:48.602Z,4.13
2018-05-12T16:03:14.486Z,3.30
2018-05-12T16:05:40.176Z,3.93
2018-05-12T16:08:05.927Z,2.70
2018-05-12T16:10:31.704Z,4.13
2018-05-12T16:12:57.496Z,3.33
2018-05-12T16:15:23.239Z,2.83
2018-05-12T16:17:48.996Z,4.10
2018-05-12T16:20:14.775Z,3.37
2018-05-12T16:22:40.541Z,3.87
2018-05-12T16:25:06.296Z,3.87
2018-05-12T16:27:32.087Z,3.50
2018-05-12T16:29:57.856Z,3.53
2018-05-12T16:32:23.615Z,3.40
2018-05-12T16:34:49.392Z,4.17
2018-05-12T16:37:15.147Z,4.73
2018-05-12T16:39:40.924Z,3.20
2018-05-12T16:42:06.726Z,3.20
2018-05-12T16:44:32.524Z,5.10
2018-05-12T16:46:58.277Z,4.90
2018-05-12T16:49:24.072Z,7.17
2018-05-12T16:51:49.826Z,3.53
2018-05-12T16:54:15.583Z,4.63
2018-05-12T16:56:41.347Z,6.57
2018-05-12T16:59:07.127Z,4.63
2018-05-12T17:01:32.864Z,3.80
2018-05-12T17:03:58.639Z,7.77
2018-05-12T17:06:24.449Z,4.33
2018-05-12T17:08:50.190Z,4.30
2018-05-12T17:11:15.955Z,4.10
2018-05-12T17:13:41.730Z,7.67
2018-05-12T17:16:07.491Z,6.67
2018-05-12T17:18:33.267Z,6.23
2018-05-12T17:20:59.060Z,4.23
2018-05-12T17:23:24.906Z,7.83
2018-05-12T17:25:50.619Z,4.10
2018-05-12T17:28:16.391Z,5.67
2018-05-12T17:30:42.157Z,4.40
2018-05-12T17:33:07.936Z,4.23
2018-05-12T17:35:33.680Z,3.90
2018-05-12T17:37:59.538Z,4.80
2018-05-12T17:40:25.221Z,4.00
2018-05-12T17:42:50.974Z,8.60
2018-05-12T17:45:16.756Z,3.57
2018-05-12T17:47:42.512Z,5.40
2018-05-12T17:50:08.332Z,5.53
2018-05-12T17:52:34.048Z,3.00
2018-05-12T17:54:59.812Z,3.87
2018-05-12T17:57:25.583Z,4.10
2018-05-12T17:59:51.355Z,7.60
2018-05-12T18:02:17.211Z,4.17
2018-05-12T18:04:42.955Z,4.70
2018-05-12T18:07:08.722Z,5.80
2018-05-12T18:09:34.483Z,4.80
2018-05-12T18:12:00.252Z,6.20
2018-05-12T18:14:26.016Z,4.27
2018-05-12T18:16:51.775Z,4.10
2018-05-12T18:19:17.523Z,4.83
2018-05-12T18:21:43.311Z,4.80
2018-05-12T18:24:09.054Z,4.30
2018-05-12T18:26:34.799Z,5.23
2018-05-12T18:29:00.579Z,6.30
2018-05-12T18:31:26.340Z,4.87
2018-05-12T18:33:52.091Z,5.10
2018-05-12T18:36:18.008Z,4.77
2018-05-12T18:38:43.774Z,5.47
2018-05-12T18:41:09.547Z,5.27
2018-05-12T18:43:35.307Z,4.83
2018-05-12T18:46:01.069Z,6.70
2018-05-12T18:48:26.837Z,5.57
2018-05-12T18:50:52.583Z,8.23
2018-05-12T18:53:18.436Z,5.60
2018-05-12T18:55:44.195Z,6.97
2018-05-12T18:58:09.951Z,6.63
2018-05-12T19:00:35.691Z,6.20
2018-05-12T19:03:01.474Z,7.30
2018-05-12T19:05:27.227Z,7.90
2018-05-12T19:07:52.981Z,6.53
2018-05-12T19:10:18.747Z,7.07
2018-05-12T19:12:44.519Z,6.83
2018-05-12T19:15:10.303Z,6.97
2018-05-12T19:17:36.047Z,8.00
2018-05-12T19:20:01.799Z,8.87
2018-05-12T19:22:27.594Z,7.77
2018-05-12T19:24:53.327Z,8.30
2018-05-12T19:27:19.094Z,6.73
2018-05-12T19:29:44.871Z,9.70
2018-05-12T19:32:10.607Z,11.30
2018-05-12T19:34:36.360Z,9.30
2018-05-12T19:37:02.143Z,7.40
2018-05-12T19:39:27.916Z,8.10
2018-05-12T19:41:53.683Z,8.00
2018-05-12T19:44:19.439Z,6.80
2018-05-12T19:46:45.204Z,10.70
2018-05-12T19:49:11.009Z,10.90
2018-05-12T19:51:36.784Z,8.13
2018-05-12T19:54:02.547Z,7.83
2018-05-12T19:56:28.331Z,8.00
2018-05-12T19:58:54.077Z,8.77
2018-05-12T20:01:19.821Z,7.90
2018-05-12T20:03:45.582Z,8.63
2018-05-12T20:06:11.343Z,9.03
2018-05-12T20:08:37.100Z,8.10
2018-05-12T20:11:02.888Z,9.27
2018-05-12T20:13:28.661Z,8.23
2018-05-12T20:15:54.542Z,9.63
2018-05-12T20:18:20.575Z,11.70
2018-05-12T20:20:46.348Z,8.23
2018-05-12T20:23:12.102Z,8.27
2018-05-12T20:25:37.976Z,8.60
2018-05-12T20:28:03.668Z,9.43
2018-05-12T20:30:29.452Z,8.90
2018-05-12T20:32:55.255Z,8.73
2018-05-12T20:35:21.027Z,8.37
2018-05-12T20:37:46.804Z,9.30
2018-05-12T20:40:12.540Z,10.10
2018-05-12T20:42:38.275Z,10.37
2018-05-12T20:45:04.088Z,9.57
2018-05-12T20:47:29.904Z,10.13
2018-05-12T20:49:55.682Z,9.63
2018-05-12T20:52:21.451Z,9.83
2018-05-12T20:54:47.208Z,10.00
2018-05-12T20:57:12.958Z,8.90
2018-05-12T20:59:38.754Z,11.13
2018-05-12T21:02:04.539Z,10.80
2018-05-12T21:04:30.288Z,9.40
2018-05-12T21:06:56.059Z,11.03
2018-05-12T21:09:21.840Z,16.70
2018-05-12T21:11:47.679Z,11.50
2018-05-12T21:14:13.528Z,11.00
2018-05-12T21:16:39.200Z,10.83
2018-05-12T21:19:04.950Z,11.23
2018-05-12T21:21:30.695Z,11.63
2018-05-12T21:23:56.443Z,10.77
2018-05-12T21:26:22.214Z,11.40
2018-05-12T21:28:48.058Z,11.37
2018-05-12T21:31:13.898Z,11.63
2018-05-12T21:33:39.667Z,13.63
2018-05-12T21:36:05.431Z,16.30
2018-05-12T21:38:31.179Z,11.80
2018-05-12T21:40:56.950Z,11.30
2018-05-12T21:43:22.700Z,15.50
2018-05-12T21:45:48.859Z,11.13
2018-05-12T21:48:14.624Z,10.40
2018-05-12T21:50:40.380Z,10.60
2018-05-12T21:53:06.150Z,14.13
2018-05-12T21:55:31.916Z,10.20
2018-05-12T21:57:57.657Z,16.33
2018-05-12T22:00:23.390Z,11.10
2018-05-12T22:02:49.399Z,12.03
2018-05-12T22:05:15.162Z,10.87
2018-05-12T22:07:40.982Z,11.50
2018-05-12T22:10:06.727Z,14.70
2018-05-12T22:12:32.481Z,13.23
2018-05-12T22:14:58.239Z,11.83
2018-05-12T22:17:24.100Z,14.30
2018-05-12T22:19:50.041Z,14.87
2018-05-12T22:22:15.799Z,12.80
2018-05-12T22:24:41.595Z,14.70
2018-05-12T22:27:07.339Z,14.53
2018-05-12T22:29:33.096Z,14.00
2018-05-12T22:31:58.864Z,18.20
2018-05-12T22:34:24.611Z,14.17
2018-05-12T22:36:50.411Z,15.10
2018-05-12T22:39:16.152Z,20.40
2018-05-12T22:41:41.912Z,15.87
2018-05-12T22:44:07.667Z,17.53
2018-05-12T22:46:33.427Z,17.07
2018-05-12T22:48:59.191Z,18.80
2018-05-12T22:51:25.059Z,18.20
2018-05-12T22:53:50.795Z,18.03
2018-05-12T22:56:16.548Z,18.80
2018-05-12T22:58:42.355Z,16.93
2018-05-12T23:01:08.110Z,16.13
2018-05-12T23:03:33.856Z,17.40
2018-05-12T23:05:59.615Z,18.67
2018-05-12T23:08:25.364Z,18.20
2018-05-12T23:10:51.124Z,19.20
2018-05-12T23:13:16.900Z,17.57
2018-05-12T23:15:42.677Z,18.33
2018-05-12T23:20:52.451Z,19.70
2018-05-12T23:23:18.306Z,24.57
2018-05-12T23:25:44.081Z,19.50
2018-05-12T23:30:54.376Z,20.30
2018-05-12T23:33:20.152Z,19.10
2018-05-12T23:35:45.904Z,19.47
2018-05-12T23:38:11.680Z,21.53
2018-05-12T23:40:37.432Z,23.53
2018-05-12T23:43:03.214Z,21.23
2018-05-12T23:45:28.985Z,20.73
2018-05-12T23:47:54.758Z,22.60
2018-05-12T23:50:20.597Z,24.57
2018-05-12T23:52:46.356Z,21.80
2018-05-12T23:55:12.104Z,22.10
2018-05-12T23:57:37.875Z,23.07
